Carlile, Wyoming
Current Conditions -  °F | °C
As of 10:53 AM on Sunday 25 Jan 2015 (Local Time) from KGCC Reporting Station
Broken Clouds Broken Clouds  
Wind Chill: 36°   Ceiling: 5500
Heat Index: 43°   Visibility: 10mi
Dew Point: 33°   Wind: 14mph
Humidity: 68%   Direction: 230°SW
Pressure: 30.06"   Gusts: NA
Location:  44.49°N, 104.8°W
Report Text: KGCC 251753Z AUTO 23012KT 10SM BKN055 06/01 A3006 RMK AO2 SLP193 60000 T00610006 10061 21006 56004 TSNO
Loading
Personal Weather Stations






























Interactive Weather Map New forecast layout! Learn more

10-Day Weather Forecast

Advertisements
Track Severe Weather on mobile